Time;durP1;ratioP1;P1;durP2;ratioP2;P2;SDS_P1;SDS_P2;PMS_P1;PMS_P2;Temp;Humidity;BMP_temperature;BMP_pressure;BME280_temperature;BME280_humidity;BME280_pressure;Samples;Min_cycle;Max_cycle;Signal;HPM_P1;HPM_P2
2022/12/09 00:00:49;;;;;;;49.85;35.17;;;;;;;;;;5051394;28;20100;-68
2022/12/09 00:03:14;;;;;;;51.22;34.75;;;;;;;;;;5052638;28;20597;-68
2022/12/09 00:05:40;;;;;;;49.22;34.15;;;;;;;;;;5050955;28;20025;-68
2022/12/09 00:08:05;;;;;;;54.20;35.25;;;;;;;;;;5063484;28;20055;-68
2022/12/09 00:10:30;;;;;;;50.42;35.88;;;;;;;;;;5053341;28;20016;-68
2022/12/09 00:12:56;;;;;;;48.72;35.53;;;;;;;;;;5052807;28;20027;-68
2022/12/09 00:15:21;;;;;;;52.40;37.35;;;;;;;;;;5056688;28;20415;-68
2022/12/09 00:17:46;;;;;;;57.22;35.85;;;;;;;;;;5056264;28;20401;-68
2022/12/09 00:20:12;;;;;;;53.00;36.55;;;;;;;;;;5052402;28;20028;-68
2022/12/09 00:22:37;;;;;;;55.45;36.78;;;;;;;;;;5051705;28;20091;-68
2022/12/09 00:25:02;;;;;;;54.95;37.42;;;;;;;;;;5052033;28;20025;-68
2022/12/09 00:27:27;;;;;;;54.08;37.85;;;;;;;;;;5049119;28;20017;-68
2022/12/09 00:29:53;;;;;;;56.03;37.70;;;;;;;;;;5054599;28;20383;-68
2022/12/09 00:32:18;;;;;;;56.60;38.88;;;;;;;;;;5052207;28;20029;-68
2022/12/09 00:34:43;;;;;;;52.63;38.28;;;;;;;;;;5052342;28;20024;-68
2022/12/09 00:37:08;;;;;;;57.38;39.53;;;;;;;;;;5052945;28;20025;-68
2022/12/09 00:39:34;;;;;;;58.08;39.10;;;;;;;;;;5052193;28;20095;-67
2022/12/09 00:41:59;;;;;;;59.75;42.72;;;;;;;;;;5040260;28;20100;-67
2022/12/09 00:44:24;;;;;;;52.85;38.53;;;;;;;;;;5033492;28;20032;-68
2022/12/09 00:46:50;;;;;;;51.05;39.28;;;;;;;;;;5033078;28;20499;-68
2022/12/09 00:49:15;;;;;;;50.40;38.72;;;;;;;;;;5046351;28;20040;-68
2022/12/09 00:51:40;;;;;;;52.95;39.08;;;;;;;;;;5045445;28;20517;-68
2022/12/09 00:54:06;;;;;;;57.30;38.97;;;;;;;;;;5035597;28;20017;-68
2022/12/09 00:56:31;;;;;;;55.92;39.53;;;;;;;;;;5041153;28;20015;-68
2022/12/09 00:58:57;;;;;;;56.30;39.13;;;;;;;;;;5035547;28;20025;-67
2022/12/09 01:01:22;;;;;;;59.88;37.78;;;;;;;;;;5032811;28;20030;-68
2022/12/09 01:03:47;;;;;;;67.05;38.45;;;;;;;;;;5032972;28;20101;-68
2022/12/09 01:06:17;;;;;;;58.50;40.08;;;;;;;;;;5033192;28;20148;-68
2022/12/09 01:08:42;;;;;;;58.30;40.50;;;;;;;;;;5033718;28;20025;-68
2022/12/09 01:11:11;;;;;;;51.25;38.17;;;;;;;;;;5034796;28;20033;-68
2022/12/09 01:13:37;;;;;;;54.85;40.05;;;;;;;;;;5037828;28;20014;-68
2022/12/09 01:16:02;;;;;;;57.90;38.35;;;;;;;;;;5036604;28;20080;-68
2022/12/09 01:18:27;;;;;;;52.45;38.72;;;;;;;;;;5056495;28;20021;-68
2022/12/09 01:20:57;;;;;;;55.92;38.88;;;;;;;;;;5055000;28;20023;-68
2022/12/09 01:23:22;;;;;;;52.35;36.92;;;;;;;;;;5049883;28;20013;-68
2022/12/09 01:25:47;;;;;;;53.42;35.45;;;;;;;;;;5052600;28;20028;-68
2022/12/09 01:28:13;;;;;;;53.92;38.95;;;;;;;;;;5053297;28;20031;-68
2022/12/09 01:30:38;;;;;;;52.35;37.33;;;;;;;;;;5052945;28;20078;-68
2022/12/09 01:33:03;;;;;;;54.97;36.95;;;;;;;;;;5055344;28;20028;-68
2022/12/09 01:35:28;;;;;;;56.30;37.00;;;;;;;;;;5055156;28;20021;-68
2022/12/09 01:37:54;;;;;;;54.20;37.78;;;;;;;;;;5035610;28;20033;-68
2022/12/09 01:40:19;;;;;;;56.53;38.50;;;;;;;;;;5036169;28;20017;-68
2022/12/09 01:42:45;;;;;;;55.00;38.00;;;;;;;;;;5053038;28;20017;-68
2022/12/09 01:45:20;;;;;;;49.33;35.80;;;;;;;;;;5055028;28;20059;-68
2022/12/09 01:47:46;;;;;;;56.33;37.00;;;;;;;;;;5066754;28;20017;-68
2022/12/09 01:50:11;;;;;;;52.28;37.50;;;;;;;;;;5059161;28;20546;-68
2022/12/09 01:52:36;;;;;;;48.00;37.85;;;;;;;;;;5059734;28;20063;-68
2022/12/09 01:55:02;;;;;;;60.22;37.90;;;;;;;;;;5045939;28;20036;-68
2022/12/09 01:57:27;;;;;;;50.08;35.20;;;;;;;;;;5055705;28;20139;-68
2022/12/09 01:59:52;;;;;;;50.08;34.95;;;;;;;;;;5048063;28;20135;-68
2022/12/09 02:02:18;;;;;;;60.83;38.45;;;;;;;;;;5052839;28;20024;-68
2022/12/09 02:04:46;;;;;;;51.60;37.17;;;;;;;;;;5048344;28;20020;-68
2022/12/09 02:07:11;;;;;;;55.85;36.88;;;;;;;;;;5053747;28;20039;-68
2022/12/09 02:09:37;;;;;;;55.72;37.45;;;;;;;;;;5047187;28;20017;-68
2022/12/09 02:12:18;;;;;;;54.65;35.50;;;;;;;;;;5047803;28;20374;-68
2022/12/09 02:14:49;;;;;;;46.88;34.45;;;;;;;;;;5044986;28;20080;-68
2022/12/09 02:17:20;;;;;;;54.92;36.08;;;;;;;;;;5053663;28;20021;-67
2022/12/09 02:19:51;;;;;;;48.75;35.13;;;;;;;;;;5051678;28;20049;-68
2022/12/09 02:22:22;;;;;;;52.58;35.67;;;;;;;;;;5059971;28;20012;-68
2022/12/09 02:25:00;;;;;;;44.63;33.97;;;;;;;;;;5053371;28;20024;-68
2022/12/09 02:27:31;;;;;;;51.42;35.25;;;;;;;;;;5053245;28;20012;-68
2022/12/09 02:29:56;;;;;;;58.13;36.78;;;;;;;;;;5032527;28;20017;-68
2022/12/09 02:32:37;;;;;;;48.70;34.15;;;;;;;;;;5040540;28;20740;-68
2022/12/09 02:35:14;;;;;;;48.58;34.50;;;;;;;;;;5054827;28;20025;-68
2022/12/09 02:38:15;;;;;;;50.42;34.70;;;;;;;;;;5054501;28;20024;-69
2022/12/09 02:40:40;;;;;;;48.83;35.05;;;;;;;;;;5045016;28;20045;-68
2022/12/09 02:43:06;;;;;;;57.90;36.90;;;;;;;;;;5035709;28;20104;-68
2022/12/09 02:45:31;;;;;;;56.20;37.17;;;;;;;;;;5047846;28;20385;-68
2022/12/09 02:47:57;;;;;;;46.20;34.47;;;;;;;;;;5049781;28;20017;-68
2022/12/09 02:50:24;;;;;;;55.25;36.35;;;;;;;;;;5053519;28;20017;-68
2022/12/09 02:52:50;;;;;;;55.47;34.97;;;;;;;;;;5053169;28;20033;-68
2022/12/09 02:55:16;;;;;;;48.38;35.03;;;;;;;;;;5036173;28;20072;-68
2022/12/09 02:57:42;;;;;;;47.53;35.25;;;;;;;;;;5036295;28;20024;-68
2022/12/09 03:00:07;;;;;;;48.13;32.90;;;;;;;;;;5039080;28;20034;-67
2022/12/09 03:02:38;;;;;;;45.30;33.00;;;;;;;;;;5036167;28;20463;-68
2022/12/09 03:05:22;;;;;;;45.50;33.30;;;;;;;;;;5047715;28;20429;-68
2022/12/09 03:08:06;;;;;;;56.08;33.30;;;;;;;;;;5038703;28;20029;-68
2022/12/09 03:10:40;;;;;;;55.75;34.88;;;;;;;;;;5038768;28;20017;-68
2022/12/09 03:13:05;;;;;;;;;;;;;;;;;;5037256;28;20057;-68
2022/12/09 03:15:32;;;;;;;50.47;33.08;;;;;;;;;;5035659;28;20007;-67
2022/12/09 03:17:58;;;;;;;49.53;34.08;;;;;;;;;;5051515;28;20023;-68
2022/12/09 03:20:26;;;;;;;54.45;34.38;;;;;;;;;;5052959;28;20016;-68
2022/12/09 03:22:54;;;;;;;52.00;33.22;;;;;;;;;;5053544;28;20107;-67
2022/12/09 03:25:22;;;;;;;46.28;32.70;;;;;;;;;;5053363;28;20033;-68
2022/12/09 03:28:04;;;;;;;47.83;33.33;;;;;;;;;;5052048;28;20403;-68
2022/12/09 03:30:30;;;;;;;46.10;33.00;;;;;;;;;;5048120;28;20039;-67
2022/12/09 03:32:55;;;;;;;46.08;32.22;;;;;;;;;;5047974;28;20021;-68
2022/12/09 03:35:23;;;;;;;44.72;32.42;;;;;;;;;;5038255;28;20025;-67
2022/12/09 03:37:49;;;;;;;48.65;32.65;;;;;;;;;;5041369;28;20032;-67
2022/12/09 03:40:17;;;;;;;43.67;31.23;;;;;;;;;;5037029;28;20029;-67
2022/12/09 03:42:52;;;;;;;45.20;31.33;;;;;;;;;;5038060;28;20017;-68
2022/12/09 03:45:18;;;;;;;45.95;31.65;;;;;;;;;;5039069;28;20140;-67
2022/12/09 03:47:43;;;;;;;48.58;31.75;;;;;;;;;;5043598;28;20021;-67
2022/12/09 03:50:09;;;;;;;46.15;32.92;;;;;;;;;;5042349;28;20163;-67
2022/12/09 03:52:37;;;;;;;44.80;30.80;;;;;;;;;;5037545;28;20033;-68
2022/12/09 03:55:25;;;;;;;44.63;30.20;;;;;;;;;;5046167;28;20431;-68
2022/12/09 03:57:53;;;;;;;48.45;31.98;;;;;;;;;;5024805;28;20120;-67
2022/12/09 04:00:18;;;;;;;44.60;31.77;;;;;;;;;;5048378;28;20448;-67
2022/12/09 04:02:44;;;;;;;43.55;30.63;;;;;;;;;;5035988;28;20017;-67
2022/12/09 04:05:09;;;;;;;54.63;32.83;;;;;;;;;;5034998;28;20043;-67
2022/12/09 04:07:34;;;;;;;37.13;28.67;;;;;;;;;;5033578;28;20044;-67
2022/12/09 04:09:59;;;;;;;41.40;29.92;;;;;;;;;;5046639;28;20025;-68
2022/12/09 04:12:25;;;;;;;51.05;31.65;;;;;;;;;;5033479;28;20531;-68
2022/12/09 04:14:50;;;;;;;46.80;33.15;;;;;;;;;;5033344;28;20022;-68
2022/12/09 04:17:15;;;;;;;44.85;31.00;;;;;;;;;;5045137;28;20017;-67
2022/12/09 04:19:40;;;;;;;48.60;31.67;;;;;;;;;;5036770;28;20029;-68
2022/12/09 04:22:06;;;;;;;47.30;30.83;;;;;;;;;;5034719;28;20029;-68
2022/12/09 04:24:31;;;;;;;45.42;29.13;;;;;;;;;;5040864;28;20092;-68
2022/12/09 04:26:56;;;;;;;43.15;30.30;;;;;;;;;;5042803;28;20021;-68
2022/12/09 04:29:21;;;;;;;42.28;30.55;;;;;;;;;;5051561;28;20136;-67
2022/12/09 04:31:47;;;;;;;45.42;29.80;;;;;;;;;;5052860;28;20410;-67
2022/12/09 04:34:12;;;;;;;45.22;31.17;;;;;;;;;;5051133;28;20014;-67
2022/12/09 04:36:37;;;;;;;43.20;29.80;;;;;;;;;;5052264;28;20126;-67
2022/12/09 04:39:02;;;;;;;41.55;30.25;;;;;;;;;;5051111;28;20404;-67
2022/12/09 04:41:28;;;;;;;45.83;31.60;;;;;;;;;;5052798;28;20005;-67
2022/12/09 04:43:53;;;;;;;47.75;33.38;;;;;;;;;;5038980;28;20026;-67
2022/12/09 04:46:18;;;;;;;47.97;34.03;;;;;;;;;;5040587;28;20021;-67
2022/12/09 04:48:44;;;;;;;50.65;33.55;;;;;;;;;;5039154;28;20479;-67
2022/12/09 04:51:10;;;;;;;47.38;33.22;;;;;;;;;;5032970;28;20033;-67
2022/12/09 04:53:36;;;;;;;46.05;31.70;;;;;;;;;;5032855;28;20484;-67
2022/12/09 04:56:02;;;;;;;44.28;32.28;;;;;;;;;;5033990;28;20041;-68
2022/12/09 04:58:28;;;;;;;54.35;32.40;;;;;;;;;;5053494;28;20029;-68
2022/12/09 05:00:53;;;;;;;50.25;31.25;;;;;;;;;;5056106;28;20123;-67
2022/12/09 05:03:18;;;;;;;49.65;32.65;;;;;;;;;;5055974;28;20048;-67
2022/12/09 05:05:44;;;;;;;50.55;31.63;;;;;;;;;;5056774;28;20069;-67
2022/12/09 05:08:09;;;;;;;46.47;31.73;;;;;;;;;;5058464;28;20021;-67
2022/12/09 05:10:34;;;;;;;44.55;32.47;;;;;;;;;;5058885;28;20016;-68
2022/12/09 05:12:59;;;;;;;51.58;33.90;;;;;;;;;;5051802;28;20455;-67
2022/12/09 05:15:25;;;;;;;48.95;33.28;;;;;;;;;;5053229;28;20095;-67
2022/12/09 05:17:50;;;;;;;48.28;32.65;;;;;;;;;;5058643;28;20056;-67
2022/12/09 05:20:15;;;;;;;50.47;34.33;;;;;;;;;;5050303;28;20152;-68
2022/12/09 05:22:40;;;;;;;48.97;32.42;;;;;;;;;;5049532;28;20028;-68
2022/12/09 05:25:06;;;;;;;42.70;32.60;;;;;;;;;;5051745;28;20029;-68
2022/12/09 05:27:31;;;;;;;50.42;32.72;;;;;;;;;;5050472;28;20494;-67
2022/12/09 05:29:56;;;;;;;43.40;32.97;;;;;;;;;;5047331;28;20021;-68
2022/12/09 05:32:22;;;;;;;48.42;33.33;;;;;;;;;;5048353;28;20024;-68
2022/12/09 05:34:47;;;;;;;54.63;32.72;;;;;;;;;;5055636;28;20025;-68
2022/12/09 05:37:13;;;;;;;53.85;33.55;;;;;;;;;;5055403;28;20012;-68
2022/12/09 05:39:39;;;;;;;48.35;32.60;;;;;;;;;;5057389;28;20024;-68
2022/12/09 05:42:04;;;;;;;40.22;29.95;;;;;;;;;;5052013;28;20438;-69
2022/12/09 05:44:29;;;;;;;43.03;31.40;;;;;;;;;;5050613;28;20021;-67
2022/12/09 05:46:56;;;;;;;46.58;32.05;;;;;;;;;;5052280;28;20025;-68
2022/12/09 05:49:21;;;;;;;48.25;33.30;;;;;;;;;;5053043;28;20541;-67
2022/12/09 05:51:46;;;;;;;47.30;32.95;;;;;;;;;;5053704;28;20033;-68
2022/12/09 05:54:11;;;;;;;47.28;33.30;;;;;;;;;;5046656;28;20024;-68
2022/12/09 05:56:36;;;;;;;54.15;34.88;;;;;;;;;;5051820;28;20047;-68
2022/12/09 05:59:02;;;;;;;47.38;32.13;;;;;;;;;;5060386;28;20096;-67
2022/12/09 06:01:27;;;;;;;42.25;30.75;;;;;;;;;;5053875;28;20013;-68
2022/12/09 06:03:53;;;;;;;43.45;31.30;;;;;;;;;;5056558;28;20017;-67
2022/12/09 06:06:19;;;;;;;56.97;36.05;;;;;;;;;;5064731;28;20367;-67
2022/12/09 06:08:45;;;;;;;55.58;34.30;;;;;;;;;;5053870;28;20422;-68
2022/12/09 06:11:12;;;;;;;77.68;47.10;;;;;;;;;;5055799;28;20086;-68
2022/12/09 06:13:37;;;;;;;68.35;41.30;;;;;;;;;;5062580;28;20100;-67
2022/12/09 06:16:03;;;;;;;76.82;47.78;;;;;;;;;;5059230;28;20104;-68
2022/12/09 06:18:29;;;;;;;64.82;42.03;;;;;;;;;;5050412;28;20032;-68
2022/12/09 06:20:54;;;;;;;53.10;36.17;;;;;;;;;;5045138;28;20017;-67
2022/12/09 06:23:19;;;;;;;60.38;37.90;;;;;;;;;;5049889;28;20025;-67
2022/12/09 06:25:44;;;;;;;55.22;39.10;;;;;;;;;;5049261;28;20024;-67
2022/12/09 06:28:10;;;;;;;52.45;37.05;;;;;;;;;;5048931;28;20033;-67
2022/12/09 06:30:35;;;;;;;59.88;37.13;;;;;;;;;;5050067;28;20054;-67
2022/12/09 06:33:00;;;;;;;54.55;37.58;;;;;;;;;;5045582;28;20068;-68
2022/12/09 06:35:26;;;;;;;55.08;37.30;;;;;;;;;;5060468;28;20016;-68
2022/12/09 06:37:52;;;;;;;57.25;36.47;;;;;;;;;;5056873;28;20029;-68
2022/12/09 06:40:17;;;;;;;57.47;37.55;;;;;;;;;;5052015;28;20037;-68
2022/12/09 06:42:42;;;;;;;53.03;36.85;;;;;;;;;;5049893;28;20025;-68
2022/12/09 06:45:08;;;;;;;75.55;48.08;;;;;;;;;;5035030;28;20028;-68
2022/12/09 06:47:33;;;;;;;79.35;48.67;;;;;;;;;;5048274;28;20028;-68
2022/12/09 06:50:00;;;;;;;72.55;46.13;;;;;;;;;;5045938;28;20024;-68
2022/12/09 06:52:25;;;;;;;70.70;44.95;;;;;;;;;;5039028;28;20033;-68
2022/12/09 06:54:51;;;;;;;65.88;44.10;;;;;;;;;;5036221;28;20025;-68
2022/12/09 06:57:16;;;;;;;75.65;45.35;;;;;;;;;;5036304;28;20025;-68
2022/12/09 06:59:41;;;;;;;68.07;45.90;;;;;;;;;;5036113;28;20068;-65
2022/12/09 07:02:08;;;;;;;72.40;47.70;;;;;;;;;;5030952;28;20371;-66
2022/12/09 07:04:33;;;;;;;72.32;46.88;;;;;;;;;;5030437;28;20545;-67
2022/12/09 07:06:59;;;;;;;68.45;45.75;;;;;;;;;;5030755;28;20029;-67
2022/12/09 07:09:24;;;;;;;74.13;46.00;;;;;;;;;;5026196;28;20557;-67
2022/12/09 07:11:50;;;;;;;66.63;45.13;;;;;;;;;;5038179;28;20025;-67
2022/12/09 07:14:16;;;;;;;82.78;44.58;;;;;;;;;;5028903;28;20056;-67
2022/12/09 07:16:42;;;;;;;65.88;41.08;;;;;;;;;;5032125;28;20028;-69
2022/12/09 07:19:13;;;;;;;71.95;45.70;;;;;;;;;;5033861;28;20021;-67
2022/12/09 07:21:38;;;;;;;62.83;42.75;;;;;;;;;;5031939;28;20025;-68
2022/12/09 07:24:03;;;;;;;57.40;39.72;;;;;;;;;;5036750;28;20075;-68
2022/12/09 07:26:30;;;;;;;60.70;39.90;;;;;;;;;;5027817;28;20017;-67
2022/12/09 07:28:55;;;;;;;59.90;37.60;;;;;;;;;;5033907;28;20496;-68
2022/12/09 07:31:24;;;;;;;54.90;37.33;;;;;;;;;;5036586;28;20063;-77
2022/12/09 07:33:50;;;;;;;60.90;38.95;;;;;;;;;;5034322;28;20045;-67
2022/12/09 07:36:16;;;;;;;61.53;39.90;;;;;;;;;;5038228;28;20556;-66
2022/12/09 07:38:42;;;;;;;63.05;39.03;;;;;;;;;;5031744;28;20958;-67
2022/12/09 07:41:07;;;;;;;55.72;37.28;;;;;;;;;;5039766;28;20013;-67
2022/12/09 07:43:33;;;;;;;66.78;40.90;;;;;;;;;;5039657;28;20468;-66
2022/12/09 07:45:58;;;;;;;56.75;38.67;;;;;;;;;;5045057;28;20024;-67
2022/12/09 07:48:24;;;;;;;64.28;41.53;;;;;;;;;;5035656;28;20514;-66
2022/12/09 07:50:49;;;;;;;55.25;40.92;;;;;;;;;;5048861;28;20029;-66
2022/12/09 07:53:14;;;;;;;65.13;39.58;;;;;;;;;;5037125;28;20056;-67
2022/12/09 07:55:39;;;;;;;58.08;36.50;;;;;;;;;;5031411;28;20064;-66
2022/12/09 07:58:04;;;;;;;59.60;39.17;;;;;;;;;;5030512;28;20431;-67
2022/12/09 08:00:30;;;;;;;59.22;40.08;;;;;;;;;;5031806;28;20033;-67
2022/12/09 08:02:55;;;;;;;69.65;44.20;;;;;;;;;;5042477;28;20104;-66
2022/12/09 08:05:20;;;;;;;68.00;43.47;;;;;;;;;;5045583;28;20014;-67
2022/12/09 08:07:45;;;;;;;80.90;49.65;;;;;;;;;;5035587;28;20028;-67
2022/12/09 08:10:11;;;;;;;70.25;47.78;;;;;;;;;;5047165;28;20498;-66
2022/12/09 08:12:36;;;;;;;68.10;42.47;;;;;;;;;;5034115;28;20060;-67
2022/12/09 08:15:01;;;;;;;74.05;43.97;;;;;;;;;;5042333;28;20033;-66
2022/12/09 08:17:28;;;;;;;72.22;46.85;;;;;;;;;;5043005;28;20527;-66
2022/12/09 08:19:54;;;;;;;70.43;48.85;;;;;;;;;;5042577;28;20018;-67
2022/12/09 08:22:20;;;;;;;75.97;49.10;;;;;;;;;;5041082;28;20021;-66
2022/12/09 08:24:45;;;;;;;70.93;45.83;;;;;;;;;;5046508;28;20033;-66
2022/12/09 08:27:10;;;;;;;76.88;47.47;;;;;;;;;;5043863;28;20111;-66
2022/12/09 08:29:35;;;;;;;92.97;51.88;;;;;;;;;;5028834;28;20041;-67
2022/12/09 08:32:01;;;;;;;85.55;54.13;;;;;;;;;;5026884;28;20087;-66
2022/12/09 08:34:26;;;;;;;78.45;48.60;;;;;;;;;;5026055;28;20067;-66
2022/12/09 08:36:51;;;;;;;79.72;52.25;;;;;;;;;;5026913;28;20021;-66
2022/12/09 08:39:16;;;;;;;80.63;52.65;;;;;;;;;;5035618;28;20170;-66
2022/12/09 08:41:42;;;;;;;80.15;54.67;;;;;;;;;;5039053;28;20104;-66
2022/12/09 08:44:07;;;;;;;82.50;53.67;;;;;;;;;;5035910;28;20017;-67
2022/12/09 08:46:33;;;;;;;88.73;55.63;;;;;;;;;;5034635;28;20049;-67
2022/12/09 08:49:00;;;;;;;95.05;56.47;;;;;;;;;;5027266;28;20324;-67
2022/12/09 08:51:25;;;;;;;84.70;52.95;;;;;;;;;;5027089;28;20021;-67
2022/12/09 08:53:50;;;;;;;94.10;50.65;;;;;;;;;;5028951;28;20076;-66
2022/12/09 08:56:16;;;;;;;81.38;52.83;;;;;;;;;;5028083;28;20566;-66
2022/12/09 08:58:41;;;;;;;76.82;50.22;;;;;;;;;;5028594;28;20030;-66
2022/12/09 09:01:12;;;;;;;82.55;49.38;;;;;;;;;;5040297;28;20060;-66
2022/12/09 09:03:37;;;;;;;83.43;51.78;;;;;;;;;;5028768;28;20100;-66
2022/12/09 09:06:04;;;;;;;73.60;48.50;;;;;;;;;;5030625;28;20096;-66
2022/12/09 09:08:30;;;;;;;73.95;47.30;;;;;;;;;;5028503;28;20025;-66
2022/12/09 09:10:55;;;;;;;77.22;49.63;;;;;;;;;;5056527;28;20029;-66
2022/12/09 09:13:20;;;;;;;86.13;49.80;;;;;;;;;;5049094;28;20063;-66
2022/12/09 09:15:45;;;;;;;71.97;48.58;;;;;;;;;;5048096;28;20078;-66
2022/12/09 09:18:11;;;;;;;80.88;48.28;;;;;;;;;;5050413;28;20028;-66
2022/12/09 09:20:36;;;;;;;81.18;46.88;;;;;;;;;;5057590;28;20031;-67
2022/12/09 09:23:01;;;;;;;83.38;49.47;;;;;;;;;;5034226;28;20028;-69
2022/12/09 09:25:26;;;;;;;76.80;47.00;;;;;;;;;;5036665;28;20411;-68
2022/12/09 09:27:52;;;;;;;73.80;49.03;;;;;;;;;;5043726;28;20021;-66
2022/12/09 09:30:17;;;;;;;71.07;47.97;;;;;;;;;;5048231;28;20024;-68
2022/12/09 09:32:42;;;;;;;79.10;48.58;;;;;;;;;;5032746;28;20025;-66
2022/12/09 09:35:07;;;;;;;79.60;47.35;;;;;;;;;;5031502;28;20025;-67
2022/12/09 09:37:33;;;;;;;74.88;46.78;;;;;;;;;;5033685;28;20606;-67
2022/12/09 09:39:58;;;;;;;93.28;56.58;;;;;;;;;;5032855;28;20037;-67
2022/12/09 09:42:27;;;;;;;87.53;48.83;;;;;;;;;;5050101;28;20487;-67
2022/12/09 09:44:53;;;;;;;67.57;41.95;;;;;;;;;;5042808;28;20040;-67
2022/12/09 09:47:37;;;;;;;79.88;46.20;;;;;;;;;;5041850;28;20021;-67
2022/12/09 09:50:02;;;;;;;67.15;41.47;;;;;;;;;;5037084;28;20100;-67
2022/12/09 09:52:28;;;;;;;84.03;44.90;;;;;;;;;;5038259;28;20040;-67
2022/12/09 09:54:54;;;;;;;74.55;44.70;;;;;;;;;;5037266;28;20026;-67
2022/12/09 09:57:28;;;;;;;64.00;41.83;;;;;;;;;;5039985;28;20410;-67
2022/12/09 10:00:00;;;;;;;60.65;40.35;;;;;;;;;;5039810;28;20053;-67
2022/12/09 10:02:31;;;;;;;57.85;35.33;;;;;;;;;;5031830;28;20021;-67
2022/12/09 10:05:04;;;;;;;53.65;35.67;;;;;;;;;;5029362;28;20367;-67
2022/12/09 10:07:40;;;;;;;60.50;37.58;;;;;;;;;;5034394;28;20136;-67
2022/12/09 10:10:20;;;;;;;73.90;44.65;;;;;;;;;;5039132;28;20139;-67
2022/12/09 10:13:11;;;;;;;68.55;42.30;;;;;;;;;;5035723;28;20037;-67
2022/12/09 10:15:59;;;;;;;61.72;40.65;;;;;;;;;;5041161;28;20529;-67
2022/12/09 10:18:27;;;;;;;62.55;41.05;;;;;;;;;;5041279;28;20046;-67
2022/12/09 10:20:53;;;;;;;69.05;41.72;;;;;;;;;;5039428;28;20460;-67
2022/12/09 10:23:19;;;;;;;65.00;39.10;;;;;;;;;;5029331;28;20108;-67
2022/12/09 10:25:55;;;;;;;61.38;39.95;;;;;;;;;;5043169;28;20029;-67
2022/12/09 10:28:23;;;;;;;63.78;40.75;;;;;;;;;;5034362;28;20033;-67
2022/12/09 10:30:49;;;;;;;57.42;37.33;;;;;;;;;;5041908;28;20471;-67
2022/12/09 10:33:17;;;;;;;59.35;37.05;;;;;;;;;;5045987;28;20032;-66
2022/12/09 10:35:43;;;;;;;59.42;38.05;;;;;;;;;;5043417;28;20017;-67
2022/12/09 10:38:10;;;;;;;66.65;41.03;;;;;;;;;;5046336;28;20404;-67
2022/12/09 10:40:46;;;;;;;68.18;41.08;;;;;;;;;;5044464;28;20146;-67
2022/12/09 10:43:40;;;;;;;70.13;45.22;;;;;;;;;;5041083;28;20017;-67
2022/12/09 10:46:06;;;;;;;;;;;;;;;;;;5044748;28;20048;-67
2022/12/09 10:48:41;;;;;;;63.55;39.33;;;;;;;;;;5043699;28;19912;-67
2022/12/09 10:51:12;;;;;;;68.55;41.22;;;;;;;;;;5045339;28;20037;-67
2022/12/09 10:53:42;;;;;;;60.90;39.13;;;;;;;;;;5055964;28;20021;-67
2022/12/09 10:56:08;;;;;;;61.92;41.88;;;;;;;;;;5041758;28;20029;-67
2022/12/09 10:58:33;;;;;;;59.63;38.95;;;;;;;;;;5045885;28;20032;-67
2022/12/09 11:00:58;;;;;;;60.53;38.45;;;;;;;;;;5046318;28;20021;-67
2022/12/09 11:03:29;;;;;;;59.28;36.75;;;;;;;;;;5042729;28;20036;-67
2022/12/09 11:05:59;;;;;;;45.78;32.20;;;;;;;;;;5033300;28;20021;-67
2022/12/09 11:08:24;;;;;;;44.28;31.80;;;;;;;;;;5044834;28;20031;-67
2022/12/09 11:10:50;;;;;;;53.38;33.28;;;;;;;;;;5045250;28;20029;-67
2022/12/09 11:13:16;;;;;;;45.38;30.63;;;;;;;;;;5044133;28;20041;-68
2022/12/09 11:15:43;;;;;;;40.47;31.48;;;;;;;;;;5042535;28;20035;-66
2022/12/09 11:18:14;;;;;;;48.10;30.98;;;;;;;;;;5054837;28;20168;-67
2022/12/09 11:20:39;;;;;;;46.28;30.60;;;;;;;;;;5042007;28;20729;-67
2022/12/09 11:23:12;;;;;;;36.85;27.15;;;;;;;;;;5041842;28;20029;-67
2022/12/09 11:25:49;;;;;;;46.50;27.25;;;;;;;;;;5043618;28;20037;-67
2022/12/09 11:28:14;;;;;;;43.13;29.70;;;;;;;;;;5034067;28;20039;-67
2022/12/09 11:30:47;;;;;;;35.47;24.65;;;;;;;;;;5041705;28;20022;-67
2022/12/09 11:33:12;;;;;;;31.98;21.30;;;;;;;;;;5023330;28;20026;-67
2022/12/09 11:35:43;;;;;;;34.60;23.50;;;;;;;;;;5036940;28;20027;-67
2022/12/09 11:38:21;;;;;;;38.00;25.20;;;;;;;;;;5026921;28;20088;-67
2022/12/09 11:41:04;;;;;;;38.90;24.23;;;;;;;;;;5041301;28;20029;-67
2022/12/09 11:43:32;;;;;;;39.05;26.17;;;;;;;;;;5026555;28;20445;-67
2022/12/09 11:45:57;;;;;;;40.35;28.88;;;;;;;;;;5028020;28;20035;-67
2022/12/09 11:48:33;;;;;;;38.95;27.95;;;;;;;;;;5035796;28;20379;-67
2022/12/09 11:50:58;;;;;;;36.35;25.98;;;;;;;;;;5039435;28;20035;-67
2022/12/09 11:53:31;;;;;;;41.10;26.77;;;;;;;;;;5038003;28;20029;-67
2022/12/09 11:55:59;;;;;;;35.45;25.60;;;;;;;;;;5027531;28;20049;-67
2022/12/09 11:58:29;;;;;;;44.75;28.67;;;;;;;;;;5027275;28;20025;-67
2022/12/09 12:00:54;;;;;;;46.58;30.05;;;;;;;;;;5040006;28;20044;-67
2022/12/09 12:03:28;;;;;;;38.80;27.40;;;;;;;;;;5025648;28;20480;-67
2022/12/09 12:05:54;;;;;;;37.10;23.80;;;;;;;;;;5032578;28;20294;-67
2022/12/09 12:08:22;;;;;;;35.97;24.50;;;;;;;;;;5028348;28;20730;-67
2022/12/09 12:10:59;;;;;;;40.60;25.65;;;;;;;;;;5035117;28;20021;-67
2022/12/09 12:13:30;;;;;;;43.92;28.95;;;;;;;;;;5033608;28;20033;-67
2022/12/09 12:16:01;;;;;;;43.05;25.30;;;;;;;;;;5028437;28;20026;-67
2022/12/09 12:18:28;;;;;;;34.40;22.83;;;;;;;;;;5023162;28;20028;-67
2022/12/09 12:20:53;;;;;;;35.25;25.08;;;;;;;;;;5038972;28;20379;-67
2022/12/09 12:23:28;;;;;;;40.40;26.90;;;;;;;;;;5036025;28;20016;-67
2022/12/09 12:26:09;;;;;;;39.30;26.25;;;;;;;;;;5045694;28;20275;-67
2022/12/09 12:28:40;;;;;;;41.05;27.95;;;;;;;;;;5052561;28;20568;-67
2022/12/09 12:31:05;;;;;;;37.47;27.77;;;;;;;;;;5040325;28;20585;-67
2022/12/09 12:33:49;;;;;;;44.15;27.48;;;;;;;;;;5033668;28;20060;-67
2022/12/09 12:36:38;;;;;;;46.30;27.92;;;;;;;;;;5023325;28;20025;-67
2022/12/09 12:39:22;;;;;;;44.72;27.65;;;;;;;;;;5024264;28;20056;-67
2022/12/09 12:41:53;;;;;;;37.78;24.67;;;;;;;;;;5025319;28;20049;-67
2022/12/09 12:47:16;;;;;;;43.17;27.80;;;;;;;;;;5020510;28;20048;-66
2022/12/09 12:49:48;;;;;;;42.40;27.00;;;;;;;;;;5046967;28;20513;-67
2022/12/09 12:52:21;;;;;;;39.45;27.10;;;;;;;;;;5036948;28;20588;-66
2022/12/09 12:55:10;;;;;;;30.63;20.83;;;;;;;;;;5037665;28;20974;-67
2022/12/09 12:57:46;;;;;;;48.00;26.42;;;;;;;;;;5046186;28;20058;-66
2022/12/09 13:00:12;;;;;;;38.75;26.45;;;;;;;;;;5029669;28;20411;-66
2022/12/09 13:02:46;;;;;;;42.08;28.08;;;;;;;;;;5029347;28;20021;-66
2022/12/09 13:05:19;;;;;;;42.05;28.27;;;;;;;;;;5022079;28;20028;-66
2022/12/09 13:07:47;;;;;;;44.95;28.10;;;;;;;;;;5019202;28;20040;-67
2022/12/09 13:10:16;;;;;;;38.53;27.05;;;;;;;;;;5026024;28;20063;-66
2022/12/09 13:12:55;;;;;;;44.10;27.48;;;;;;;;;;5037579;28;20068;-66
2022/12/09 13:15:30;;;;;;;37.80;25.15;;;;;;;;;;5022898;28;20039;-66
2022/12/09 13:17:58;;;;;;;40.08;25.95;;;;;;;;;;5037493;28;20021;-67
2022/12/09 13:20:33;;;;;;;40.10;24.10;;;;;;;;;;5037711;28;20451;-66
2022/12/09 13:22:58;;;;;;;35.47;23.73;;;;;;;;;;5037282;28;20024;-66
2022/12/09 13:25:27;;;;;;;43.45;27.67;;;;;;;;;;5039032;28;20022;-67
2022/12/09 13:28:02;;;;;;;41.83;25.45;;;;;;;;;;5021653;28;20036;-67
2022/12/09 13:30:42;;;;;;;37.25;23.88;;;;;;;;;;5036528;28;20032;-67
2022/12/09 13:33:32;;;;;;;46.83;27.17;;;;;;;;;;5022292;28;20100;-66
2022/12/09 13:36:01;;;;;;;36.38;24.48;;;;;;;;;;5034955;28;20131;-66
2022/12/09 13:38:32;;;;;;;37.28;25.00;;;;;;;;;;5029881;28;20033;-67
2022/12/09 13:40:58;;;;;;;38.08;24.73;;;;;;;;;;5009655;28;20021;-66
2022/12/09 13:43:25;;;;;;;38.58;24.77;;;;;;;;;;5007848;28;20141;-66
2022/12/09 13:45:58;;;;;;;39.08;25.77;;;;;;;;;;5015254;28;20029;-66
2022/12/09 13:48:23;;;;;;;32.03;21.42;;;;;;;;;;5008049;28;20028;-66
2022/12/09 13:50:54;;;;;;;31.40;22.83;;;;;;;;;;5009307;28;20017;-67
2022/12/09 13:53:20;;;;;;;32.95;21.02;;;;;;;;;;5010696;28;20075;-66
2022/12/09 13:55:50;;;;;;;30.05;21.30;;;;;;;;;;5017450;28;20142;-66
2022/12/09 13:58:29;;;;;;;30.50;22.00;;;;;;;;;;5009113;28;20027;-66
2022/12/09 14:01:00;;;;;;;32.15;21.13;;;;;;;;;;5009502;28;20083;-66
2022/12/09 14:03:48;;;;;;;33.65;22.10;;;;;;;;;;5012141;28;20040;-67
2022/12/09 14:06:25;;;;;;;29.50;22.38;;;;;;;;;;5001417;28;20048;-67
2022/12/09 14:08:52;;;;;;;34.53;22.40;;;;;;;;;;5019554;28;20016;-66
2022/12/09 14:11:36;;;;;;;32.72;22.73;;;;;;;;;;5010555;28;20017;-66
2022/12/09 14:14:20;;;;;;;37.13;24.80;;;;;;;;;;5011506;28;20020;-66
2022/12/09 14:16:45;;;;;;;38.65;24.50;;;;;;;;;;5011385;28;20036;-66
2022/12/09 14:19:23;;;;;;;37.90;22.63;;;;;;;;;;5014283;28;20017;-66
2022/12/09 14:22:12;;;;;;;33.13;22.65;;;;;;;;;;5016743;28;20905;-66
2022/12/09 14:24:37;;;;;;;34.22;22.58;;;;;;;;;;5006767;28;20032;-66
2022/12/09 14:27:02;;;;;;;32.75;22.23;;;;;;;;;;5012615;28;20021;-67